sensor_id;sensor_type;location;lat;lon;timestamp;temperature;humidity
66328;DHT22;53133;52.862;6.602;2022-12-29T00:01:30;10.00;99.90
66328;DHT22;53133;52.862;6.602;2022-12-29T00:03:58;10.00;99.90
66328;DHT22;53133;52.862;6.602;2022-12-29T00:06:25;10.10;99.90
66328;DHT22;53133;52.862;6.602;2022-12-29T00:08:51;10.10;99.90
66328;DHT22;53133;52.862;6.602;2022-12-29T00:11:22;10.10;99.90
66328;DHT22;53133;52.862;6.602;2022-12-29T00:13:48;10.10;99.90
66328;DHT22;53133;52.862;6.602;2022-12-29T00:16:33;10.10;99.90
66328;DHT22;53133;52.862;6.602;2022-12-29T00:18:59;10.10;99.90
66328;DHT22;53133;52.862;6.602;2022-12-29T00:21:26;10.10;99.90
66328;DHT22;53133;52.862;6.602;2022-12-29T00:24:18;10.10;99.90
66328;DHT22;53133;52.862;6.602;2022-12-29T00:29:46;10.10;99.90
66328;DHT22;53133;52.862;6.602;2022-12-29T00:32:30;10.10;99.90
66328;DHT22;53133;52.862;6.602;2022-12-29T00:35:25;10.10;99.90
66328;DHT22;53133;52.862;6.602;2022-12-29T00:37:52;10.20;99.90
66328;DHT22;53133;52.862;6.602;2022-12-29T00:40:37;10.10;99.90
66328;DHT22;53133;52.862;6.602;2022-12-29T00:43:21;10.10;99.90
66328;DHT22;53133;52.862;6.602;2022-12-29T00:46:06;10.10;99.90
66328;DHT22;53133;52.862;6.602;2022-12-29T00:48:31;10.20;99.90
66328;DHT22;53133;52.862;6.602;2022-12-29T00:51:16;10.20;99.90
66328;DHT22;53133;52.862;6.602;2022-12-29T00:53:41;10.20;99.90
66328;DHT22;53133;52.862;6.602;2022-12-29T00:56:07;10.20;99.90
66328;DHT22;53133;52.862;6.602;2022-12-29T00:58:33;10.20;99.90
66328;DHT22;53133;52.862;6.602;2022-12-29T01:01:06;10.20;99.90
66328;DHT22;53133;52.862;6.602;2022-12-29T01:03:33;10.20;99.90
66328;DHT22;53133;52.862;6.602;2022-12-29T01:06:07;10.20;99.90
66328;DHT22;53133;52.862;6.602;2022-12-29T01:08:33;10.20;99.90
66328;DHT22;53133;52.862;6.602;2022-12-29T01:11:05;10.20;99.90
66328;DHT22;53133;52.862;6.602;2022-12-29T01:13:31;10.20;99.90
66328;DHT22;53133;52.862;6.602;2022-12-29T01:15:57;10.20;99.90
66328;DHT22;53133;52.862;6.602;2022-12-29T01:18:23;10.20;99.90
66328;DHT22;53133;52.862;6.602;2022-12-29T01:20:50;10.20;99.90
66328;DHT22;53133;52.862;6.602;2022-12-29T01:23:16;10.20;99.90
66328;DHT22;53133;52.862;6.602;2022-12-29T01:25:42;10.20;99.90
66328;DHT22;53133;52.862;6.602;2022-12-29T01:28:08;10.20;99.90
66328;DHT22;53133;52.862;6.602;2022-12-29T01:30:34;10.20;99.90
66328;DHT22;53133;52.862;6.602;2022-12-29T01:33:00;10.30;99.90
66328;DHT22;53133;52.862;6.602;2022-12-29T01:35:27;10.20;99.90
66328;DHT22;53133;52.862;6.602;2022-12-29T01:37:53;10.30;99.90
66328;DHT22;53133;52.862;6.602;2022-12-29T01:40:18;10.30;99.90
66328;DHT22;53133;52.862;6.602;2022-12-29T01:42:44;10.30;99.90
66328;DHT22;53133;52.862;6.602;2022-12-29T01:45:14;10.30;99.90
66328;DHT22;53133;52.862;6.602;2022-12-29T01:47:47;10.30;99.90
66328;DHT22;53133;52.862;6.602;2022-12-29T01:50:25;10.30;99.90
66328;DHT22;53133;52.862;6.602;2022-12-29T01:52:57;10.30;99.90
66328;DHT22;53133;52.862;6.602;2022-12-29T01:55:24;10.30;99.90
66328;DHT22;53133;52.862;6.602;2022-12-29T01:57:52;10.30;99.90
66328;DHT22;53133;52.862;6.602;2022-12-29T02:00:19;10.30;99.90
66328;DHT22;53133;52.862;6.602;2022-12-29T02:02:48;10.30;99.90
66328;DHT22;53133;52.862;6.602;2022-12-29T02:05:29;10.30;99.90
66328;DHT22;53133;52.862;6.602;2022-12-29T02:07:57;10.30;99.90
66328;DHT22;53133;52.862;6.602;2022-12-29T02:10:26;10.30;99.90
66328;DHT22;53133;52.862;6.602;2022-12-29T02:12:53;10.30;99.90
66328;DHT22;53133;52.862;6.602;2022-12-29T02:15:25;10.40;99.90
66328;DHT22;53133;52.862;6.602;2022-12-29T02:18:12;10.40;99.90
66328;DHT22;53133;52.862;6.602;2022-12-29T02:21:41;10.40;99.90
66328;DHT22;53133;52.862;6.602;2022-12-29T02:26:33;10.40;99.90
66328;DHT22;53133;52.862;6.602;2022-12-29T02:32:23;10.40;99.90
66328;DHT22;53133;52.862;6.602;2022-12-29T02:35:01;10.40;99.90
66328;DHT22;53133;52.862;6.602;2022-12-29T02:37:43;10.40;99.90
66328;DHT22;53133;52.862;6.602;2022-12-29T02:43:44;10.40;99.90
66328;DHT22;53133;52.862;6.602;2022-12-29T02:48:47;10.40;99.90
66328;DHT22;53133;52.862;6.602;2022-12-29T02:51:32;10.40;99.90
66328;DHT22;53133;52.862;6.602;2022-12-29T02:53:59;10.40;99.90
66328;DHT22;53133;52.862;6.602;2022-12-29T02:56:43;10.40;99.90
66328;DHT22;53133;52.862;6.602;2022-12-29T02:59:09;10.40;99.90
66328;DHT22;53133;52.862;6.602;2022-12-29T03:04:38;10.40;99.90
66328;DHT22;53133;52.862;6.602;2022-12-29T03:15:55;10.40;99.90
66328;DHT22;53133;52.862;6.602;2022-12-29T03:24:47;10.40;99.90
66328;DHT22;53133;52.862;6.602;2022-12-29T03:27:19;10.40;99.90
66328;DHT22;53133;52.862;6.602;2022-12-29T03:29:48;10.30;99.90
66328;DHT22;53133;52.862;6.602;2022-12-29T03:32:20;10.40;99.90
66328;DHT22;53133;52.862;6.602;2022-12-29T03:34:48;10.40;99.90
66328;DHT22;53133;52.862;6.602;2022-12-29T03:37:18;10.40;99.90
66328;DHT22;53133;52.862;6.602;2022-12-29T03:39:45;10.40;99.90
66328;DHT22;53133;52.862;6.602;2022-12-29T03:42:15;10.40;99.90
66328;DHT22;53133;52.862;6.602;2022-12-29T03:44:43;10.40;99.90
66328;DHT22;53133;52.862;6.602;2022-12-29T03:47:11;10.30;99.90
66328;DHT22;53133;52.862;6.602;2022-12-29T03:49:37;10.40;99.90
66328;DHT22;53133;52.862;6.602;2022-12-29T03:52:03;10.40;99.90
66328;DHT22;53133;52.862;6.602;2022-12-29T03:54:29;10.40;99.90
66328;DHT22;53133;52.862;6.602;2022-12-29T03:56:55;10.40;99.90
66328;DHT22;53133;52.862;6.602;2022-12-29T03:59:21;10.40;99.90
66328;DHT22;53133;52.862;6.602;2022-12-29T04:01:46;10.40;99.90
66328;DHT22;53133;52.862;6.602;2022-12-29T04:04:12;10.40;99.90
66328;DHT22;53133;52.862;6.602;2022-12-29T04:06:38;10.30;99.90
66328;DHT22;53133;52.862;6.602;2022-12-29T04:09:04;10.40;99.90
66328;DHT22;53133;52.862;6.602;2022-12-29T04:11:30;10.30;99.90
66328;DHT22;53133;52.862;6.602;2022-12-29T04:13:55;10.30;99.90
66328;DHT22;53133;52.862;6.602;2022-12-29T04:16:21;10.30;99.90
66328;DHT22;53133;52.862;6.602;2022-12-29T04:18:46;10.20;99.90
66328;DHT22;53133;52.862;6.602;2022-12-29T04:21:12;10.20;99.90
66328;DHT22;53133;52.862;6.602;2022-12-29T04:23:38;10.20;99.90
66328;DHT22;53133;52.862;6.602;2022-12-29T04:26:05;10.10;99.90
66328;DHT22;53133;52.862;6.602;2022-12-29T04:28:35;10.10;99.90
66328;DHT22;53133;52.862;6.602;2022-12-29T04:31:01;10.10;99.90
66328;DHT22;53133;52.862;6.602;2022-12-29T04:33:27;10.00;99.90
66328;DHT22;53133;52.862;6.602;2022-12-29T04:35:53;10.00;99.90
66328;DHT22;53133;52.862;6.602;2022-12-29T04:38:20;10.00;99.90
66328;DHT22;53133;52.862;6.602;2022-12-29T04:40:46;10.00;99.90
66328;DHT22;53133;52.862;6.602;2022-12-29T04:43:13;10.00;99.90
66328;DHT22;53133;52.862;6.602;2022-12-29T04:45:43;9.90;99.90
66328;DHT22;53133;52.862;6.602;2022-12-29T04:48:09;9.90;99.90
66328;DHT22;53133;52.862;6.602;2022-12-29T04:50:34;9.90;99.90
66328;DHT22;53133;52.862;6.602;2022-12-29T04:53:00;9.90;99.90
66328;DHT22;53133;52.862;6.602;2022-12-29T04:55:26;9.90;99.90
66328;DHT22;53133;52.862;6.602;2022-12-29T04:57:54;9.90;99.90
66328;DHT22;53133;52.862;6.602;2022-12-29T05:00:20;9.80;99.90
66328;DHT22;53133;52.862;6.602;2022-12-29T05:02:46;9.80;99.90
66328;DHT22;53133;52.862;6.602;2022-12-29T05:05:12;9.80;99.90
66328;DHT22;53133;52.862;6.602;2022-12-29T05:07:38;9.80;99.90
66328;DHT22;53133;52.862;6.602;2022-12-29T05:10:04;9.70;99.90
66328;DHT22;53133;52.862;6.602;2022-12-29T05:12:31;9.70;99.90
66328;DHT22;53133;52.862;6.602;2022-12-29T05:14:57;9.70;99.90
66328;DHT22;53133;52.862;6.602;2022-12-29T05:17:22;9.60;99.90
66328;DHT22;53133;52.862;6.602;2022-12-29T05:19:48;9.60;99.90
66328;DHT22;53133;52.862;6.602;2022-12-29T05:22:14;9.60;99.90
66328;DHT22;53133;52.862;6.602;2022-12-29T05:24:40;9.60;99.90
66328;DHT22;53133;52.862;6.602;2022-12-29T05:27:05;9.60;99.90
66328;DHT22;53133;52.862;6.602;2022-12-29T05:29:31;9.60;99.90
66328;DHT22;53133;52.862;6.602;2022-12-29T05:31:57;9.60;99.90
66328;DHT22;53133;52.862;6.602;2022-12-29T05:34:22;9.50;99.90
66328;DHT22;53133;52.862;6.602;2022-12-29T05:36:48;9.50;99.90
66328;DHT22;53133;52.862;6.602;2022-12-29T05:39:14;9.50;99.90
66328;DHT22;53133;52.862;6.602;2022-12-29T05:41:39;9.50;99.90
66328;DHT22;53133;52.862;6.602;2022-12-29T05:44:05;9.50;99.90
66328;DHT22;53133;52.862;6.602;2022-12-29T05:46:30;9.50;99.90
66328;DHT22;53133;52.862;6.602;2022-12-29T05:48:56;9.50;99.90
66328;DHT22;53133;52.862;6.602;2022-12-29T05:51:22;9.50;99.90
66328;DHT22;53133;52.862;6.602;2022-12-29T05:53:47;9.40;99.90
66328;DHT22;53133;52.862;6.602;2022-12-29T05:56:13;9.40;99.90
66328;DHT22;53133;52.862;6.602;2022-12-29T05:58:38;9.40;99.90
66328;DHT22;53133;52.862;6.602;2022-12-29T06:01:04;9.40;99.90
66328;DHT22;53133;52.862;6.602;2022-12-29T06:03:30;9.40;99.90
66328;DHT22;53133;52.862;6.602;2022-12-29T06:05:55;9.40;99.90
66328;DHT22;53133;52.862;6.602;2022-12-29T06:08:21;9.30;99.90
66328;DHT22;53133;52.862;6.602;2022-12-29T06:10:46;9.30;99.90
66328;DHT22;53133;52.862;6.602;2022-12-29T06:13:12;9.30;99.90
66328;DHT22;53133;52.862;6.602;2022-12-29T06:15:38;9.30;99.90
66328;DHT22;53133;52.862;6.602;2022-12-29T06:18:03;9.30;99.90
66328;DHT22;53133;52.862;6.602;2022-12-29T06:20:29;9.30;99.90
66328;DHT22;53133;52.862;6.602;2022-12-29T06:22:54;9.30;99.90
66328;DHT22;53133;52.862;6.602;2022-12-29T06:25:20;9.30;99.90
66328;DHT22;53133;52.862;6.602;2022-12-29T06:27:46;9.30;99.90
66328;DHT22;53133;52.862;6.602;2022-12-29T06:30:12;9.30;99.90
66328;DHT22;53133;52.862;6.602;2022-12-29T06:32:38;9.30;99.90
66328;DHT22;53133;52.862;6.602;2022-12-29T06:35:04;9.40;99.90
66328;DHT22;53133;52.862;6.602;2022-12-29T06:37:31;9.40;99.90
66328;DHT22;53133;52.862;6.602;2022-12-29T06:39:57;9.40;99.90
66328;DHT22;53133;52.862;6.602;2022-12-29T06:42:22;9.40;99.90
66328;DHT22;53133;52.862;6.602;2022-12-29T06:44:48;9.40;99.90
66328;DHT22;53133;52.862;6.602;2022-12-29T06:47:14;9.40;99.90
66328;DHT22;53133;52.862;6.602;2022-12-29T06:49:39;9.40;99.90
66328;DHT22;53133;52.862;6.602;2022-12-29T06:52:05;9.40;99.90
66328;DHT22;53133;52.862;6.602;2022-12-29T06:54:31;9.40;99.90
66328;DHT22;53133;52.862;6.602;2022-12-29T06:56:57;9.40;99.90
66328;DHT22;53133;52.862;6.602;2022-12-29T06:59:23;9.40;99.90
66328;DHT22;53133;52.862;6.602;2022-12-29T07:01:49;9.30;99.90
66328;DHT22;53133;52.862;6.602;2022-12-29T07:04:15;9.30;99.90
66328;DHT22;53133;52.862;6.602;2022-12-29T07:06:40;9.30;99.90
66328;DHT22;53133;52.862;6.602;2022-12-29T07:09:07;9.30;99.90
66328;DHT22;53133;52.862;6.602;2022-12-29T07:11:33;9.40;99.90
66328;DHT22;53133;52.862;6.602;2022-12-29T07:13:59;9.30;99.90
66328;DHT22;53133;52.862;6.602;2022-12-29T07:16:25;9.30;99.90
66328;DHT22;53133;52.862;6.602;2022-12-29T07:18:50;9.30;99.90
66328;DHT22;53133;52.862;6.602;2022-12-29T07:21:17;9.30;99.90
66328;DHT22;53133;52.862;6.602;2022-12-29T07:23:43;9.30;99.90
66328;DHT22;53133;52.862;6.602;2022-12-29T07:26:11;9.30;99.90
66328;DHT22;53133;52.862;6.602;2022-12-29T07:28:37;9.30;99.90
66328;DHT22;53133;52.862;6.602;2022-12-29T07:31:04;9.30;99.90
66328;DHT22;53133;52.862;6.602;2022-12-29T07:33:30;9.30;99.90
66328;DHT22;53133;52.862;6.602;2022-12-29T07:35:56;9.40;99.90
66328;DHT22;53133;52.862;6.602;2022-12-29T07:38:22;9.40;99.90
66328;DHT22;53133;52.862;6.602;2022-12-29T07:40:48;9.40;99.90
66328;DHT22;53133;52.862;6.602;2022-12-29T07:43:13;9.40;99.90
66328;DHT22;53133;52.862;6.602;2022-12-29T07:45:39;9.40;99.90
66328;DHT22;53133;52.862;6.602;2022-12-29T07:48:05;9.40;99.90
66328;DHT22;53133;52.862;6.602;2022-12-29T07:50:35;9.40;99.90
66328;DHT22;53133;52.862;6.602;2022-12-29T07:53:01;9.40;99.90
66328;DHT22;53133;52.862;6.602;2022-12-29T07:55:26;9.40;99.90
66328;DHT22;53133;52.862;6.602;2022-12-29T07:57:56;9.40;99.90
66328;DHT22;53133;52.862;6.602;2022-12-29T08:00:22;9.40;99.90
66328;DHT22;53133;52.862;6.602;2022-12-29T08:02:48;9.40;99.90
66328;DHT22;53133;52.862;6.602;2022-12-29T08:05:14;9.40;99.90
66328;DHT22;53133;52.862;6.602;2022-12-29T08:07:42;9.40;99.90
66328;DHT22;53133;52.862;6.602;2022-12-29T08:10:09;9.30;99.90
66328;DHT22;53133;52.862;6.602;2022-12-29T08:12:35;9.30;99.90
66328;DHT22;53133;52.862;6.602;2022-12-29T08:15:00;9.30;99.90
66328;DHT22;53133;52.862;6.602;2022-12-29T08:17:26;9.30;99.90
66328;DHT22;53133;52.862;6.602;2022-12-29T08:19:51;9.30;99.90
66328;DHT22;53133;52.862;6.602;2022-12-29T08:22:17;9.30;99.90
66328;DHT22;53133;52.862;6.602;2022-12-29T08:24:42;9.30;99.90
66328;DHT22;53133;52.862;6.602;2022-12-29T08:27:08;9.30;99.90
66328;DHT22;53133;52.862;6.602;2022-12-29T08:29:34;9.30;99.90
66328;DHT22;53133;52.862;6.602;2022-12-29T08:32:00;9.30;99.90
66328;DHT22;53133;52.862;6.602;2022-12-29T08:34:25;9.30;99.90
66328;DHT22;53133;52.862;6.602;2022-12-29T08:36:51;9.40;99.90
66328;DHT22;53133;52.862;6.602;2022-12-29T08:39:16;9.30;99.90
66328;DHT22;53133;52.862;6.602;2022-12-29T08:41:42;9.30;99.90
66328;DHT22;53133;52.862;6.602;2022-12-29T08:44:08;9.30;99.90
66328;DHT22;53133;52.862;6.602;2022-12-29T08:46:33;9.40;99.90
66328;DHT22;53133;52.862;6.602;2022-12-29T08:48:59;9.40;99.90
66328;DHT22;53133;52.862;6.602;2022-12-29T08:51:24;9.40;99.90
66328;DHT22;53133;52.862;6.602;2022-12-29T08:53:50;9.40;99.90
66328;DHT22;53133;52.862;6.602;2022-12-29T08:56:16;9.40;99.90
66328;DHT22;53133;52.862;6.602;2022-12-29T08:58:41;9.40;99.90
66328;DHT22;53133;52.862;6.602;2022-12-29T09:01:07;9.40;99.90
66328;DHT22;53133;52.862;6.602;2022-12-29T09:03:32;9.40;99.90
66328;DHT22;53133;52.862;6.602;2022-12-29T09:05:58;9.40;99.90
66328;DHT22;53133;52.862;6.602;2022-12-29T09:08:24;9.50;99.90
66328;DHT22;53133;52.862;6.602;2022-12-29T09:10:50;9.40;99.90
66328;DHT22;53133;52.862;6.602;2022-12-29T09:13:16;9.50;99.90
66328;DHT22;53133;52.862;6.602;2022-12-29T09:15:42;9.50;99.90
66328;DHT22;53133;52.862;6.602;2022-12-29T09:18:08;9.50;99.90
66328;DHT22;53133;52.862;6.602;2022-12-29T09:20:34;9.50;99.90
66328;DHT22;53133;52.862;6.602;2022-12-29T09:23:00;9.50;99.90
66328;DHT22;53133;52.862;6.602;2022-12-29T09:25:26;9.50;99.90
66328;DHT22;53133;52.862;6.602;2022-12-29T09:27:52;9.50;99.90
66328;DHT22;53133;52.862;6.602;2022-12-29T09:30:19;9.50;99.90
66328;DHT22;53133;52.862;6.602;2022-12-29T09:32:45;9.50;99.90
66328;DHT22;53133;52.862;6.602;2022-12-29T09:35:12;9.50;99.90
66328;DHT22;53133;52.862;6.602;2022-12-29T09:37:38;9.50;99.90
66328;DHT22;53133;52.862;6.602;2022-12-29T09:40:05;9.50;99.90
66328;DHT22;53133;52.862;6.602;2022-12-29T09:45:16;9.50;99.90
66328;DHT22;53133;52.862;6.602;2022-12-29T09:47:44;9.50;99.90
66328;DHT22;53133;52.862;6.602;2022-12-29T09:50:23;9.50;99.90
66328;DHT22;53133;52.862;6.602;2022-12-29T09:55:37;9.50;99.90
66328;DHT22;53133;52.862;6.602;2022-12-29T09:58:10;9.50;99.90
66328;DHT22;53133;52.862;6.602;2022-12-29T10:00:59;9.50;99.90
66328;DHT22;53133;52.862;6.602;2022-12-29T10:03:45;9.50;99.90
66328;DHT22;53133;52.862;6.602;2022-12-29T10:06:15;9.50;99.90
66328;DHT22;53133;52.862;6.602;2022-12-29T10:11:39;9.50;99.90
66328;DHT22;53133;52.862;6.602;2022-12-29T10:14:27;9.50;99.90
66328;DHT22;53133;52.862;6.602;2022-12-29T10:25:02;9.40;99.90
66328;DHT22;53133;52.862;6.602;2022-12-29T10:27:35;9.50;99.90
66328;DHT22;53133;52.862;6.602;2022-12-29T10:30:02;9.40;99.90
66328;DHT22;53133;52.862;6.602;2022-12-29T10:32:58;9.40;99.90
66328;DHT22;53133;52.862;6.602;2022-12-29T10:35:28;9.40;99.90
66328;DHT22;53133;52.862;6.602;2022-12-29T10:41:00;9.40;99.90
66328;DHT22;53133;52.862;6.602;2022-12-29T10:43:32;9.40;99.90
66328;DHT22;53133;52.862;6.602;2022-12-29T10:46:07;9.40;99.90
66328;DHT22;53133;52.862;6.602;2022-12-29T10:48:35;9.30;99.90
66328;DHT22;53133;52.862;6.602;2022-12-29T10:51:04;9.30;99.90
66328;DHT22;53133;52.862;6.602;2022-12-29T10:53:46;9.30;99.90
66328;DHT22;53133;52.862;6.602;2022-12-29T10:58:58;9.30;99.90
66328;DHT22;53133;52.862;6.602;2022-12-29T11:01:35;9.30;99.90
66328;DHT22;53133;52.862;6.602;2022-12-29T11:04:25;9.30;99.90
66328;DHT22;53133;52.862;6.602;2022-12-29T11:06:53;9.30;99.90
66328;DHT22;53133;52.862;6.602;2022-12-29T11:09:26;9.30;99.90
66328;DHT22;53133;52.862;6.602;2022-12-29T11:11:52;9.30;99.90
66328;DHT22;53133;52.862;6.602;2022-12-29T11:14:21;9.30;99.90
66328;DHT22;53133;52.862;6.602;2022-12-29T11:17:02;9.30;99.90
66328;DHT22;53133;52.862;6.602;2022-12-29T11:19:32;9.40;99.90
66328;DHT22;53133;52.862;6.602;2022-12-29T11:22:23;9.30;99.90
66328;DHT22;53133;52.862;6.602;2022-12-29T11:24:50;9.30;99.90
66328;DHT22;53133;52.862;6.602;2022-12-29T11:27:20;9.30;99.90
66328;DHT22;53133;52.862;6.602;2022-12-29T11:29:48;9.30;99.90
66328;DHT22;53133;52.862;6.602;2022-12-29T11:32:24;9.30;99.90
66328;DHT22;53133;52.862;6.602;2022-12-29T11:34:50;9.30;99.90
66328;DHT22;53133;52.862;6.602;2022-12-29T11:37:37;9.40;99.90
66328;DHT22;53133;52.862;6.602;2022-12-29T11:40:18;9.40;99.90
66328;DHT22;53133;52.862;6.602;2022-12-29T11:42:52;9.40;99.90
66328;DHT22;53133;52.862;6.602;2022-12-29T11:45:22;9.40;99.90
66328;DHT22;53133;52.862;6.602;2022-12-29T11:47:56;9.40;99.90
66328;DHT22;53133;52.862;6.602;2022-12-29T11:50:36;9.50;99.90
66328;DHT22;53133;52.862;6.602;2022-12-29T11:53:06;9.50;99.90
66328;DHT22;53133;52.862;6.602;2022-12-29T11:55:36;9.60;99.90
66328;DHT22;53133;52.862;6.602;2022-12-29T11:58:03;9.60;99.90
66328;DHT22;53133;52.862;6.602;2022-12-29T12:00:32;9.60;99.90
66328;DHT22;53133;52.862;6.602;2022-12-29T12:03:22;9.60;99.90
66328;DHT22;53133;52.862;6.602;2022-12-29T12:05:58;9.60;99.90
66328;DHT22;53133;52.862;6.602;2022-12-29T12:11:22;9.60;99.90
66328;DHT22;53133;52.862;6.602;2022-12-29T12:13:57;9.50;99.90
66328;DHT22;53133;52.862;6.602;2022-12-29T12:16:31;9.50;99.90
66328;DHT22;53133;52.862;6.602;2022-12-29T12:19:23;9.50;99.90
66328;DHT22;53133;52.862;6.602;2022-12-29T12:22:03;9.50;99.90
66328;DHT22;53133;52.862;6.602;2022-12-29T12:24:53;9.40;99.90
66328;DHT22;53133;52.862;6.602;2022-12-29T12:27:33;9.40;99.90
66328;DHT22;53133;52.862;6.602;2022-12-29T12:30:16;9.40;99.90
66328;DHT22;53133;52.862;6.602;2022-12-29T12:39:10;9.40;99.90
66328;DHT22;53133;52.862;6.602;2022-12-29T12:41:48;9.30;99.90
66328;DHT22;53133;52.862;6.602;2022-12-29T12:44:33;9.30;99.90
66328;DHT22;53133;52.862;6.602;2022-12-29T12:52:54;9.40;99.90
66328;DHT22;53133;52.862;6.602;2022-12-29T13:00:41;9.40;99.90
66328;DHT22;53133;52.862;6.602;2022-12-29T13:03:29;9.40;99.90
66328;DHT22;53133;52.862;6.602;2022-12-29T13:14:31;9.30;99.90
66328;DHT22;53133;52.862;6.602;2022-12-29T13:19:51;9.20;99.90
66328;DHT22;53133;52.862;6.602;2022-12-29T13:22:45;9.30;99.90
66328;DHT22;53133;52.862;6.602;2022-12-29T13:31:19;9.30;99.90
66328;DHT22;53133;52.862;6.602;2022-12-29T13:33:55;9.20;99.90
66328;DHT22;53133;52.862;6.602;2022-12-29T13:39:04;9.20;99.90
66328;DHT22;53133;52.862;6.602;2022-12-29T13:41:35;9.20;99.90
66328;DHT22;53133;52.862;6.602;2022-12-29T13:44:03;9.20;99.90
66328;DHT22;53133;52.862;6.602;2022-12-29T13:46:40;9.30;99.90
66328;DHT22;53133;52.862;6.602;2022-12-29T13:49:17;9.30;99.90
66328;DHT22;53133;52.862;6.602;2022-12-29T13:51:48;9.20;99.90
66328;DHT22;53133;52.862;6.602;2022-12-29T13:54:25;9.20;99.90
66328;DHT22;53133;52.862;6.602;2022-12-29T13:57:05;9.20;99.90
66328;DHT22;53133;52.862;6.602;2022-12-29T14:02:15;9.20;99.90
66328;DHT22;53133;52.862;6.602;2022-12-29T14:04:58;9.20;99.90
66328;DHT22;53133;52.862;6.602;2022-12-29T14:07:25;9.20;99.90
66328;DHT22;53133;52.862;6.602;2022-12-29T14:09:54;9.20;99.90
66328;DHT22;53133;52.862;6.602;2022-12-29T14:14:50;9.10;99.90
66328;DHT22;53133;52.862;6.602;2022-12-29T14:17:19;9.10;99.90
66328;DHT22;53133;52.862;6.602;2022-12-29T14:19:45;9.10;99.90
66328;DHT22;53133;52.862;6.602;2022-12-29T14:22:12;9.10;99.90
66328;DHT22;53133;52.862;6.602;2022-12-29T14:24:41;9.10;99.90
66328;DHT22;53133;52.862;6.602;2022-12-29T14:29:52;9.10;99.90
66328;DHT22;53133;52.862;6.602;2022-12-29T14:34:54;9.10;99.90
66328;DHT22;53133;52.862;6.602;2022-12-29T14:37:32;9.10;99.90
66328;DHT22;53133;52.862;6.602;2022-12-29T14:40:14;9.10;99.90
66328;DHT22;53133;52.862;6.602;2022-12-29T14:42:43;9.00;99.90
66328;DHT22;53133;52.862;6.602;2022-12-29T14:47:46;9.10;99.90
66328;DHT22;53133;52.862;6.602;2022-12-29T14:50:24;9.00;99.90
66328;DHT22;53133;52.862;6.602;2022-12-29T14:53:00;9.00;99.90
66328;DHT22;53133;52.862;6.602;2022-12-29T14:55:45;9.00;99.90
66328;DHT22;53133;52.862;6.602;2022-12-29T14:58:19;9.00;99.90
66328;DHT22;53133;52.862;6.602;2022-12-29T15:00:46;9.00;99.90
66328;DHT22;53133;52.862;6.602;2022-12-29T15:03:18;9.00;99.90
66328;DHT22;53133;52.862;6.602;2022-12-29T15:09:12;9.00;99.90
66328;DHT22;53133;52.862;6.602;2022-12-29T15:14:27;9.00;99.90
66328;DHT22;53133;52.862;6.602;2022-12-29T15:16:53;9.00;99.90
66328;DHT22;53133;52.862;6.602;2022-12-29T15:19:23;9.00;99.90
66328;DHT22;53133;52.862;6.602;2022-12-29T15:21:49;9.10;99.90
66328;DHT22;53133;52.862;6.602;2022-12-29T15:24:16;9.00;99.90
66328;DHT22;53133;52.862;6.602;2022-12-29T15:26:50;9.10;99.90
66328;DHT22;53133;52.862;6.602;2022-12-29T15:29:37;9.10;99.90
66328;DHT22;53133;52.862;6.602;2022-12-29T15:34:42;9.10;99.90
66328;DHT22;53133;52.862;6.602;2022-12-29T15:37:08;9.10;99.90
66328;DHT22;53133;52.862;6.602;2022-12-29T15:39:34;9.10;99.90
66328;DHT22;53133;52.862;6.602;2022-12-29T15:42:05;9.10;99.90
66328;DHT22;53133;52.862;6.602;2022-12-29T15:44:41;9.10;99.90
66328;DHT22;53133;52.862;6.602;2022-12-29T15:47:22;9.10;99.90
66328;DHT22;53133;52.862;6.602;2022-12-29T15:49:50;9.10;99.90
66328;DHT22;53133;52.862;6.602;2022-12-29T15:52:21;9.10;99.90
66328;DHT22;53133;52.862;6.602;2022-12-29T15:54:49;9.00;99.90
66328;DHT22;53133;52.862;6.602;2022-12-29T15:57:24;9.10;99.90
66328;DHT22;53133;52.862;6.602;2022-12-29T15:59:50;9.10;99.90
66328;DHT22;53133;52.862;6.602;2022-12-29T16:02:16;9.10;99.90
66328;DHT22;53133;52.862;6.602;2022-12-29T16:04:42;9.10;99.90
66328;DHT22;53133;52.862;6.602;2022-12-29T16:07:29;9.20;99.90
66328;DHT22;53133;52.862;6.602;2022-12-29T16:10:00;9.20;99.90
66328;DHT22;53133;52.862;6.602;2022-12-29T16:12:32;9.20;99.90
66328;DHT22;53133;52.862;6.602;2022-12-29T16:15:00;9.20;99.90
66328;DHT22;53133;52.862;6.602;2022-12-29T16:17:35;9.20;99.90
66328;DHT22;53133;52.862;6.602;2022-12-29T16:20:17;9.20;99.90
66328;DHT22;53133;52.862;6.602;2022-12-29T16:22:50;9.30;99.90
66328;DHT22;53133;52.862;6.602;2022-12-29T16:25:24;9.20;99.90
66328;DHT22;53133;52.862;6.602;2022-12-29T16:27:51;9.20;99.90
66328;DHT22;53133;52.862;6.602;2022-12-29T16:30:24;9.20;99.90
66328;DHT22;53133;52.862;6.602;2022-12-29T16:32:53;9.20;99.90
66328;DHT22;53133;52.862;6.602;2022-12-29T16:35:28;9.20;99.90
66328;DHT22;53133;52.862;6.602;2022-12-29T16:38:30;9.20;99.90
66328;DHT22;53133;52.862;6.602;2022-12-29T16:40:57;9.20;99.90
66328;DHT22;53133;52.862;6.602;2022-12-29T16:43:36;9.20;99.90
66328;DHT22;53133;52.862;6.602;2022-12-29T16:46:26;9.20;99.90
66328;DHT22;53133;52.862;6.602;2022-12-29T16:48:54;9.20;99.90
66328;DHT22;53133;52.862;6.602;2022-12-29T16:51:32;9.20;99.90
66328;DHT22;53133;52.862;6.602;2022-12-29T16:53:59;9.20;99.90
66328;DHT22;53133;52.862;6.602;2022-12-29T16:56:32;9.10;99.90
66328;DHT22;53133;52.862;6.602;2022-12-29T16:59:19;9.10;99.90
66328;DHT22;53133;52.862;6.602;2022-12-29T17:01:49;9.00;99.90
66328;DHT22;53133;52.862;6.602;2022-12-29T17:04:14;8.80;99.90
66328;DHT22;53133;52.862;6.602;2022-12-29T17:06:40;8.70;99.90
66328;DHT22;53133;52.862;6.602;2022-12-29T17:09:26;8.50;99.90
66328;DHT22;53133;52.862;6.602;2022-12-29T17:11:55;8.40;99.90
66328;DHT22;53133;52.862;6.602;2022-12-29T17:16:57;8.30;99.90
66328;DHT22;53133;52.862;6.602;2022-12-29T17:19:34;8.20;99.90
66328;DHT22;53133;52.862;6.602;2022-12-29T17:22:01;8.20;99.90
66328;DHT22;53133;52.862;6.602;2022-12-29T17:24:27;8.20;99.90
66328;DHT22;53133;52.862;6.602;2022-12-29T17:26:56;8.20;99.90
66328;DHT22;53133;52.862;6.602;2022-12-29T17:29:32;8.20;99.90
66328;DHT22;53133;52.862;6.602;2022-12-29T17:31:59;8.20;99.90
66328;DHT22;53133;52.862;6.602;2022-12-29T17:34:25;8.20;99.90
66328;DHT22;53133;52.862;6.602;2022-12-29T17:36:51;8.20;99.90
66328;DHT22;53133;52.862;6.602;2022-12-29T17:39:17;8.10;99.90
66328;DHT22;53133;52.862;6.602;2022-12-29T17:41:42;8.20;99.90
66328;DHT22;53133;52.862;6.602;2022-12-29T17:44:17;8.20;99.90
66328;DHT22;53133;52.862;6.602;2022-12-29T17:46:44;8.20;99.90
66328;DHT22;53133;52.862;6.602;2022-12-29T17:49:15;8.20;99.90
66328;DHT22;53133;52.862;6.602;2022-12-29T17:51:45;8.20;99.90
66328;DHT22;53133;52.862;6.602;2022-12-29T17:54:23;8.20;99.90
66328;DHT22;53133;52.862;6.602;2022-12-29T17:56:50;8.30;99.90
66328;DHT22;53133;52.862;6.602;2022-12-29T17:59:16;8.30;99.90
66328;DHT22;53133;52.862;6.602;2022-12-29T18:01:44;8.30;99.90